sensor_id;sensor_type;location;lat;lon;timestamp;temperature;humidity
50690;DHT22;71367;48.298;11.238;2024-01-07T00:01:27;1.90;99.90
50690;DHT22;71367;48.298;11.238;2024-01-07T00:16:31;1.90;99.90
50690;DHT22;71367;48.298;11.238;2024-01-07T00:31:35;1.90;99.90
50690;DHT22;71367;48.298;11.238;2024-01-07T00:46:38;1.80;99.90
50690;DHT22;71367;48.298;11.238;2024-01-07T01:01:42;1.80;99.90
50690;DHT22;71367;48.298;11.238;2024-01-07T01:16:45;1.70;99.90
50690;DHT22;71367;48.298;11.238;2024-01-07T01:31:48;1.60;99.90
50690;DHT22;71367;48.298;11.238;2024-01-07T01:46:52;1.60;99.90
50690;DHT22;71367;48.298;11.238;2024-01-07T02:01:57;1.60;99.90
50690;DHT22;71367;48.298;11.238;2024-01-07T02:17:01;1.50;99.90
50690;DHT22;71367;48.298;11.238;2024-01-07T02:32:05;1.40;99.90
50690;DHT22;71367;48.298;11.238;2024-01-07T02:47:09;1.50;99.90
50690;DHT22;71367;48.298;11.238;2024-01-07T03:02:12;1.60;99.90
50690;DHT22;71367;48.298;11.238;2024-01-07T03:17:16;1.70;99.90
50690;DHT22;71367;48.298;11.238;2024-01-07T03:32:21;1.80;99.90
50690;DHT22;71367;48.298;11.238;2024-01-07T03:47:25;1.80;99.90
50690;DHT22;71367;48.298;11.238;2024-01-07T04:02:28;1.70;99.90
50690;DHT22;71367;48.298;11.238;2024-01-07T04:17:32;1.60;99.90
50690;DHT22;71367;48.298;11.238;2024-01-07T04:32:35;1.50;99.90
50690;DHT22;71367;48.298;11.238;2024-01-07T04:47:39;1.50;99.90
50690;DHT22;71367;48.298;11.238;2024-01-07T05:02:42;1.30;99.90
50690;DHT22;71367;48.298;11.238;2024-01-07T05:17:45;1.30;99.90
50690;DHT22;71367;48.298;11.238;2024-01-07T05:32:49;1.30;99.90
50690;DHT22;71367;48.298;11.238;2024-01-07T05:47:52;1.40;99.90
50690;DHT22;71367;48.298;11.238;2024-01-07T06:02:55;1.20;99.90
50690;DHT22;71367;48.298;11.238;2024-01-07T06:17:59;1.10;99.90
50690;DHT22;71367;48.298;11.238;2024-01-07T06:33:03;1.00;99.90
50690;DHT22;71367;48.298;11.238;2024-01-07T06:48:07;0.90;99.90
50690;DHT22;71367;48.298;11.238;2024-01-07T07:03:11;0.90;99.90
50690;DHT22;71367;48.298;11.238;2024-01-07T07:18:15;1.00;99.90
50690;DHT22;71367;48.298;11.238;2024-01-07T07:33:18;0.90;99.90
50690;DHT22;71367;48.298;11.238;2024-01-07T07:48:22;0.90;99.90
50690;DHT22;71367;48.298;11.238;2024-01-07T08:03:25;0.90;99.90
50690;DHT22;71367;48.298;11.238;2024-01-07T08:18:29;0.80;99.90
50690;DHT22;71367;48.298;11.238;2024-01-07T08:33:32;0.80;99.90
50690;DHT22;71367;48.298;11.238;2024-01-07T08:48:36;0.80;99.90
50690;DHT22;71367;48.298;11.238;2024-01-07T09:03:40;0.80;99.90
50690;DHT22;71367;48.298;11.238;2024-01-07T09:18:45;0.70;99.90
50690;DHT22;71367;48.298;11.238;2024-01-07T09:33:48;0.70;99.90
50690;DHT22;71367;48.298;11.238;2024-01-07T09:48:52;0.70;99.90
50690;DHT22;71367;48.298;11.238;2024-01-07T10:03:56;0.70;99.90
50690;DHT22;71367;48.298;11.238;2024-01-07T10:19:00;0.60;99.90
50690;DHT22;71367;48.298;11.238;2024-01-07T10:34:03;0.50;99.90
50690;DHT22;71367;48.298;11.238;2024-01-07T10:49:20;0.50;99.90
50690;DHT22;71367;48.298;11.238;2024-01-07T11:04:30;0.40;99.90
50690;DHT22;71367;48.298;11.238;2024-01-07T11:19:37;0.40;99.90
50690;DHT22;71367;48.298;11.238;2024-01-07T11:34:41;0.40;99.90
50690;DHT22;71367;48.298;11.238;2024-01-07T11:49:46;0.40;99.90
50690;DHT22;71367;48.298;11.238;2024-01-07T12:04:51;0.30;99.90
50690;DHT22;71367;48.298;11.238;2024-01-07T12:19:56;0.30;99.90
50690;DHT22;71367;48.298;11.238;2024-01-07T12:35:00;0.20;99.90
50690;DHT22;71367;48.298;11.238;2024-01-07T12:50:05;0.20;99.90
50690;DHT22;71367;48.298;11.238;2024-01-07T13:05:12;0.10;99.90
50690;DHT22;71367;48.298;11.238;2024-01-07T13:20:16;0.10;99.90
50690;DHT22;71367;48.298;11.238;2024-01-07T13:35:22;0.10;99.90
50690;DHT22;71367;48.298;11.238;2024-01-07T13:50:26;0.10;99.90
50690;DHT22;71367;48.298;11.238;2024-01-07T14:05:29;0.10;99.90
50690;DHT22;71367;48.298;11.238;2024-01-07T14:20:36;-0.10;99.90
50690;DHT22;71367;48.298;11.238;2024-01-07T14:35:40;-0.30;99.90
50690;DHT22;71367;48.298;11.238;2024-01-07T14:50:43;-0.50;99.90
50690;DHT22;71367;48.298;11.238;2024-01-07T15:05:49;-0.50;99.90
50690;DHT22;71367;48.298;11.238;2024-01-07T15:20:52;-0.40;99.90
50690;DHT22;71367;48.298;11.238;2024-01-07T15:35:56;-0.30;99.90
50690;DHT22;71367;48.298;11.238;2024-01-07T15:51:00;-0.50;99.90
50690;DHT22;71367;48.298;11.238;2024-01-07T16:06:03;-0.90;99.90
50690;DHT22;71367;48.298;11.238;2024-01-07T16:21:07;-1.10;99.90
50690;DHT22;71367;48.298;11.238;2024-01-07T22:50:27;-3.00;99.90
50690;DHT22;71367;48.298;11.238;2024-01-07T23:36:18;-3.20;99.90
